Terminal Aerodrome Forecast
Issued by NWS Cleveland, OH

Home | Current Version | Previous Version | Text Only | Print | Product List | Glossary Off
Versions: 1 2 3 4 5 6 7 8 9 10 11 12 13 14 15 16

139
FTUS41 KCLE 191309 AAA
TAFCAK
TAF AMD
KCAK 191309Z 1913/2012 23004KT 2SM BR SCT004
      TEMPO 1913/1915 BKN004
     FM191500 25008KT 5SM BR BKN007
     FM191630 27008KT P6SM SCT060
     FM200000 VRB03KT P6SM SCT250=

USA.gov is the U.S. government's official web portal to all federal, state and local government web resources and services.